createdAt,value
2018-07-06T00:00:09.300Z,51.30
2018-07-06T00:04:24.352Z,53.00
2018-07-06T00:08:39.207Z,50.50
2018-07-06T00:12:54.200Z,50.50
2018-07-06T00:17:09.125Z,50.40
2018-07-06T00:21:23.859Z,50.60
2018-07-06T00:25:38.820Z,50.60
2018-07-06T00:29:53.831Z,50.90
2018-07-06T00:34:08.536Z,50.60
2018-07-06T00:38:23.319Z,50.00
2018-07-06T00:42:38.109Z,50.40
2018-07-06T00:46:53.052Z,49.80
2018-07-06T00:51:07.880Z,51.60
2018-07-06T00:55:22.755Z,50.80
2018-07-06T00:59:37.723Z,51.50
2018-07-06T01:03:52.452Z,52.70
2018-07-06T01:08:07.281Z,51.60
2018-07-06T01:12:27.420Z,52.00
2018-07-06T01:16:42.220Z,52.10
2018-07-06T01:20:56.984Z,51.70
2018-07-06T01:25:11.748Z,51.20
2018-07-06T01:29:26.690Z,52.40
2018-07-06T01:33:41.462Z,52.80
2018-07-06T01:37:56.553Z,51.50
2018-07-06T01:42:11.977Z,51.50
2018-07-06T01:46:26.976Z,51.50
2018-07-06T01:50:41.877Z,51.70
2018-07-06T01:54:56.604Z,53.10
2018-07-06T01:59:11.480Z,52.00
2018-07-06T02:03:26.318Z,51.50
2018-07-06T02:07:41.019Z,52.40
2018-07-06T02:11:55.940Z,52.70
2018-07-06T02:16:10.759Z,52.40
2018-07-06T02:20:25.429Z,52.80
2018-07-06T02:24:40.321Z,52.70
2018-07-06T02:28:55.071Z,54.30
2018-07-06T02:33:10.094Z,53.80
2018-07-06T02:37:24.952Z,54.60
2018-07-06T02:41:39.849Z,54.80
2018-07-06T02:45:54.561Z,53.40
2018-07-06T02:50:09.371Z,53.20
2018-07-06T02:54:24.260Z,54.00
2018-07-06T02:58:39.124Z,53.00
2018-07-06T03:02:53.953Z,52.80
2018-07-06T03:07:08.727Z,57.80
2018-07-06T03:11:23.631Z,54.10
2018-07-06T03:15:38.395Z,56.40
2018-07-06T03:19:53.209Z,54.30
2018-07-06T03:24:08.013Z,53.40
2018-07-06T03:28:23.034Z,53.00
2018-07-06T03:32:37.715Z,53.40
2018-07-06T03:36:52.628Z,52.80
2018-07-06T03:41:07.481Z,53.00
2018-07-06T03:45:22.411Z,54.50
2018-07-06T03:49:37.223Z,54.20
2018-07-06T03:53:52.208Z,53.30
2018-07-06T03:58:07.500Z,53.10
2018-07-06T04:02:22.395Z,54.70
2018-07-06T04:06:37.188Z,54.90
2018-07-06T04:10:51.924Z,54.40
2018-07-06T04:15:06.846Z,54.40
2018-07-06T04:19:21.664Z,54.50
2018-07-06T04:24:39.414Z,54.70
2018-07-06T04:28:54.386Z,55.10
2018-07-06T04:33:09.335Z,56.10
2018-07-06T04:37:24.233Z,56.90
2018-07-06T04:41:39.100Z,57.10
2018-07-06T04:50:03.065Z,57.40
2018-07-06T04:54:18.106Z,58.00
2018-07-06T04:58:32.824Z,58.50
2018-07-06T05:02:47.684Z,59.50
2018-07-06T05:07:02.513Z,57.40
2018-07-06T05:11:17.304Z,59.50
2018-07-06T05:15:32.151Z,58.90
2018-07-06T05:19:47.018Z,58.10
2018-07-06T05:24:01.808Z,58.40
2018-07-06T05:28:16.747Z,57.80
2018-07-06T05:32:31.571Z,57.30
2018-07-06T05:36:46.453Z,60.80
2018-07-06T05:41:01.110Z,59.30
2018-07-06T05:45:16.004Z,60.00
2018-07-06T05:49:30.960Z,59.00
2018-07-06T05:53:45.782Z,62.30
2018-07-06T05:58:00.490Z,61.10
2018-07-06T06:10:21.884Z,58.40
2018-07-06T06:14:25.478Z,57.80
2018-07-06T06:18:29.152Z,59.70
2018-07-06T06:22:32.711Z,58.80
2018-07-06T06:26:36.324Z,57.40
2018-07-06T06:34:43.241Z,57.00
2018-07-06T06:38:47.352Z,59.80
2018-07-06T06:42:50.974Z,58.40
2018-07-06T06:46:54.684Z,57.90
2018-07-06T06:50:58.355Z,59.80
2018-07-06T06:55:02.093Z,58.00
2018-07-06T06:59:05.766Z,57.90
2018-07-06T07:03:09.458Z,58.40
2018-07-06T07:07:13.291Z,58.20
2018-07-06T07:11:16.879Z,59.40
2018-07-06T07:15:20.598Z,58.60
2018-07-06T07:19:24.282Z,59.60
2018-07-06T07:23:27.963Z,57.90
2018-07-06T07:27:31.655Z,59.10
2018-07-06T07:31:35.309Z,58.20
2018-07-06T07:35:38.988Z,58.70
2018-07-06T07:39:42.665Z,59.30
2018-07-06T07:43:46.368Z,60.00
2018-07-06T07:47:50.040Z,60.90
2018-07-06T07:52:06.987Z,61.50
2018-07-06T07:56:10.636Z,60.00
2018-07-06T08:00:14.277Z,61.10
2018-07-06T08:04:18.197Z,62.40
2018-07-06T08:08:21.815Z,61.80
2018-07-06T08:12:25.459Z,64.00
2018-07-06T08:16:29.220Z,62.90
2018-07-06T08:20:32.866Z,62.00
2018-07-06T08:24:36.743Z,61.30
2018-07-06T08:28:40.368Z,60.80
2018-07-06T08:32:43.940Z,63.60
2018-07-06T08:37:57.784Z,62.80
2018-07-06T08:42:01.384Z,62.40
2018-07-06T08:46:05.064Z,62.90
2018-07-06T08:50:09.146Z,62.10
2018-07-06T08:54:12.817Z,61.20
2018-07-06T08:58:16.727Z,60.60
2018-07-06T09:02:20.479Z,61.00
2018-07-06T09:06:24.104Z,59.20
2018-07-06T09:10:27.734Z,60.50
2018-07-06T09:14:31.348Z,59.50
2018-07-06T09:18:34.967Z,60.80
2018-07-06T09:22:38.547Z,59.60
2018-07-06T09:26:42.156Z,59.40
2018-07-06T09:30:45.799Z,59.10
2018-07-06T09:34:49.508Z,58.90
2018-07-06T09:38:53.118Z,58.20
2018-07-06T09:42:56.760Z,58.20
2018-07-06T09:47:00.478Z,58.00
2018-07-06T09:51:04.182Z,57.80
2018-07-06T09:55:07.844Z,57.60
2018-07-06T09:59:12.565Z,57.00
2018-07-06T10:03:16.128Z,57.40
2018-07-06T10:07:19.757Z,57.20
2018-07-06T10:11:23.912Z,58.00
2018-07-06T10:15:27.519Z,57.40
2018-07-06T10:19:31.393Z,58.00
2018-07-06T10:23:35.054Z,57.60
2018-07-06T10:27:49.643Z,57.60
2018-07-06T10:32:30.932Z,57.40
2018-07-06T10:36:34.553Z,57.00
2018-07-06T10:40:38.147Z,56.50
2018-07-06T10:44:41.865Z,56.30
2018-07-06T10:48:46.333Z,55.30
2018-07-06T10:52:50.014Z,55.50
2018-07-06T10:56:53.808Z,55.70
2018-07-06T11:00:57.415Z,55.40
2018-07-06T11:05:01.055Z,54.80
2018-07-06T11:09:04.904Z,54.60
2018-07-06T11:13:08.510Z,54.40
2018-07-06T11:17:12.220Z,53.60
2018-07-06T11:21:15.811Z,54.20
2018-07-06T11:25:19.444Z,54.20
2018-07-06T11:29:23.034Z,54.10
2018-07-06T11:33:26.694Z,53.60
2018-07-06T11:37:30.328Z,53.50
2018-07-06T11:41:34.133Z,54.20
2018-07-06T11:45:37.925Z,52.20
2018-07-06T11:49:41.502Z,51.40
2018-07-06T11:53:45.254Z,52.60
2018-07-06T11:57:51.800Z,52.00
2018-07-06T12:01:55.471Z,51.80
2018-07-06T12:05:59.060Z,49.10
2018-07-06T12:10:02.640Z,50.10
2018-07-06T12:14:06.287Z,49.90
2018-07-06T12:18:10.045Z,50.20
2018-07-06T12:22:13.654Z,50.70
2018-07-06T12:26:17.284Z,50.20
2018-07-06T12:30:20.873Z,50.10
2018-07-06T12:34:24.537Z,49.30
2018-07-06T12:38:28.144Z,48.00
2018-07-06T12:42:31.771Z,46.50
2018-07-06T12:46:35.410Z,47.80
2018-07-06T12:50:39.030Z,48.00
2018-07-06T12:54:42.725Z,46.80
2018-07-06T12:58:46.483Z,45.40
2018-07-06T13:02:50.450Z,45.80
2018-07-06T13:06:54.076Z,47.00
2018-07-06T13:10:57.685Z,46.70
2018-07-06T13:15:01.308Z,46.90
2018-07-06T13:19:04.972Z,46.00
2018-07-06T13:23:08.620Z,43.20
2018-07-06T13:27:12.248Z,41.10
2018-07-06T13:31:15.831Z,41.90
2018-07-06T13:35:19.466Z,43.50
2018-07-06T13:39:23.351Z,42.30
2018-07-06T13:43:26.973Z,41.70
2018-07-06T13:51:28.324Z,38.30
2018-07-06T13:55:32.052Z,38.40
2018-07-06T13:59:35.747Z,38.30
2018-07-06T14:03:39.430Z,39.40
2018-07-06T14:07:43.117Z,40.40
2018-07-06T14:11:46.816Z,38.70
2018-07-06T14:15:50.500Z,37.00
2018-07-06T14:19:54.198Z,38.90
2018-07-06T14:23:57.933Z,37.50
2018-07-06T14:28:01.649Z,39.80
2018-07-06T14:32:05.284Z,35.50
2018-07-06T14:36:09.078Z,37.80
2018-07-06T14:40:12.764Z,36.70
2018-07-06T14:44:16.454Z,37.80
2018-07-06T14:48:20.115Z,35.50
2018-07-06T14:52:23.779Z,34.80
2018-07-06T14:56:27.455Z,35.60
2018-07-06T15:00:31.139Z,36.60
2018-07-06T15:04:34.852Z,36.20
2018-07-06T15:08:38.565Z,33.90
2018-07-06T15:12:42.219Z,30.80
2018-07-06T15:16:45.879Z,33.90
2018-07-06T15:20:49.548Z,30.90
2018-07-06T15:24:53.277Z,32.20
2018-07-06T15:28:56.936Z,32.50
2018-07-06T15:33:00.620Z,34.10
2018-07-06T15:37:04.329Z,32.70
2018-07-06T15:41:08.007Z,30.50
2018-07-06T15:45:11.667Z,32.80
2018-07-06T15:49:15.504Z,30.40
2018-07-06T15:53:19.195Z,30.20
2018-07-06T15:57:23.001Z,30.40
2018-07-06T16:01:26.668Z,30.30
2018-07-06T16:05:30.350Z,30.00
2018-07-06T16:09:34.028Z,29.70
2018-07-06T16:13:37.711Z,29.60
2018-07-06T16:17:41.403Z,29.70
2018-07-06T16:21:45.096Z,30.20
2018-07-06T16:25:48.754Z,30.70
2018-07-06T16:29:52.392Z,30.20
2018-07-06T16:33:56.030Z,31.00
2018-07-06T16:37:59.675Z,31.30
2018-07-06T16:42:03.379Z,32.30
2018-07-06T16:46:07.074Z,30.60
2018-07-06T16:50:10.737Z,30.10
2018-07-06T16:54:14.407Z,30.90
2018-07-06T16:58:18.054Z,30.80
2018-07-06T17:02:21.715Z,31.70
2018-07-06T17:06:25.384Z,31.70
2018-07-06T17:10:29.088Z,31.60
2018-07-06T17:14:32.777Z,31.40
2018-07-06T17:18:36.395Z,31.10
2018-07-06T17:22:40.071Z,32.20
2018-07-06T17:26:43.745Z,31.90
2018-07-06T17:30:47.436Z,31.80
2018-07-06T17:34:51.065Z,31.90
2018-07-06T17:38:54.716Z,31.50
2018-07-06T17:42:58.555Z,31.50
2018-07-06T17:47:02.236Z,31.60
2018-07-06T17:51:06.636Z,32.80
2018-07-06T17:55:10.420Z,31.40
2018-07-06T17:59:14.112Z,32.50
2018-07-06T18:03:17.808Z,32.60
2018-07-06T18:07:21.668Z,32.40
2018-07-06T18:11:25.359Z,32.90
2018-07-06T18:15:29.085Z,33.10
2018-07-06T18:19:32.807Z,33.20
2018-07-06T18:23:38.121Z,32.70
2018-07-06T18:27:41.947Z,32.60
2018-07-06T18:31:45.631Z,33.00
2018-07-06T18:35:49.291Z,33.50
2018-07-06T18:39:53.861Z,33.60
2018-07-06T18:43:58.804Z,33.90
2018-07-06T18:48:02.468Z,34.10
2018-07-06T18:52:06.182Z,34.10
2018-07-06T18:56:09.836Z,34.60
2018-07-06T19:00:13.489Z,34.70
2018-07-06T19:04:17.142Z,34.70
2018-07-06T19:08:20.804Z,35.10
2018-07-06T19:12:24.478Z,35.40
2018-07-06T19:16:28.150Z,35.10
2018-07-06T19:20:31.798Z,35.30
2018-07-06T19:24:35.515Z,35.30
2018-07-06T19:28:39.187Z,35.80
2018-07-06T19:32:43.156Z,35.40
2018-07-06T19:36:46.807Z,35.60
2018-07-06T19:40:50.445Z,35.70
2018-07-06T19:44:54.108Z,35.80
2018-07-06T19:48:57.836Z,36.00
2018-07-06T19:53:01.544Z,36.10
2018-07-06T19:57:05.703Z,36.20
2018-07-06T20:01:09.323Z,36.30
2018-07-06T20:05:12.986Z,36.50
2018-07-06T20:09:16.687Z,36.50
2018-07-06T20:13:20.429Z,36.70
2018-07-06T20:17:24.122Z,36.80
2018-07-06T20:21:27.748Z,36.80
2018-07-06T20:25:31.399Z,36.90
2018-07-06T20:29:35.146Z,36.90
2018-07-06T20:33:38.808Z,37.60
2018-07-06T20:37:42.503Z,37.00
2018-07-06T20:41:46.131Z,37.10
2018-07-06T20:45:49.790Z,37.20
2018-07-06T20:49:53.439Z,36.70
2018-07-06T20:53:57.189Z,37.40
2018-07-06T20:58:00.892Z,37.50
2018-07-06T21:02:04.536Z,37.60
2018-07-06T21:06:08.212Z,37.70
2018-07-06T21:10:11.878Z,38.00
2018-07-06T21:14:15.520Z,38.20
2018-07-06T21:18:19.181Z,38.80
2018-07-06T21:22:22.856Z,38.90
2018-07-06T21:26:26.520Z,38.80
2018-07-06T21:30:30.221Z,39.00
2018-07-06T21:34:33.853Z,39.30
2018-07-06T21:38:37.492Z,39.10
2018-07-06T21:42:41.115Z,39.30
2018-07-06T21:46:44.803Z,39.20
2018-07-06T21:50:48.659Z,39.90
2018-07-06T21:54:52.436Z,39.40
2018-07-06T21:58:56.419Z,39.40
2018-07-06T22:03:00.146Z,39.40
2018-07-06T22:07:03.838Z,39.40
2018-07-06T22:11:07.569Z,39.50
2018-07-06T22:15:11.227Z,39.50
2018-07-06T22:19:14.900Z,39.50
2018-07-06T22:23:18.652Z,39.50
2018-07-06T22:27:22.312Z,39.60
2018-07-06T22:31:26.034Z,39.60
2018-07-06T22:35:29.727Z,39.60
2018-07-06T22:39:33.435Z,40.40
2018-07-06T22:43:37.076Z,39.70
2018-07-06T22:47:40.932Z,39.80
2018-07-06T22:51:44.617Z,39.80
2018-07-06T22:55:48.309Z,40.00
2018-07-06T22:59:52.031Z,40.20
2018-07-06T23:03:55.683Z,40.50
2018-07-06T23:07:59.296Z,39.50
2018-07-06T23:12:02.959Z,40.50
2018-07-06T23:16:06.678Z,40.50
2018-07-06T23:20:10.348Z,40.60
2018-07-06T23:24:13.983Z,40.60
2018-07-06T23:28:18.092Z,40.70
2018-07-06T23:32:21.812Z,40.70
2018-07-06T23:36:25.488Z,40.70
2018-07-06T23:40:29.207Z,41.10
2018-07-06T23:44:32.891Z,41.00
2018-07-06T23:48:36.539Z,40.90
2018-07-06T23:52:40.506Z,41.00
2018-07-06T23:56:44.181Z,41.00
